sensor_id;sensor_type;location;lat;lon;timestamp;temperature;humidity
37204;DHT22;23098;48.054;10.636;2023-07-02T00:00:55;15.70;99.90
37204;DHT22;23098;48.054;10.636;2023-07-02T00:03:21;15.80;99.90
37204;DHT22;23098;48.054;10.636;2023-07-02T00:05:48;15.80;99.90
37204;DHT22;23098;48.054;10.636;2023-07-02T00:08:16;15.80;99.90
37204;DHT22;23098;48.054;10.636;2023-07-02T00:10:42;15.80;99.90
37204;DHT22;23098;48.054;10.636;2023-07-02T00:13:08;15.80;99.90
37204;DHT22;23098;48.054;10.636;2023-07-02T00:15:33;15.90;99.90
37204;DHT22;23098;48.054;10.636;2023-07-02T00:17:59;15.90;99.90
37204;DHT22;23098;48.054;10.636;2023-07-02T00:20:24;15.90;99.90
37204;DHT22;23098;48.054;10.636;2023-07-02T00:22:50;15.90;99.90
37204;DHT22;23098;48.054;10.636;2023-07-02T00:25:15;15.90;99.90
37204;DHT22;23098;48.054;10.636;2023-07-02T00:27:41;15.90;99.90
37204;DHT22;23098;48.054;10.636;2023-07-02T00:30:07;15.90;99.90
37204;DHT22;23098;48.054;10.636;2023-07-02T00:32:33;15.90;99.90
37204;DHT22;23098;48.054;10.636;2023-07-02T00:34:58;15.90;99.90
37204;DHT22;23098;48.054;10.636;2023-07-02T00:37:24;16.00;99.90
37204;DHT22;23098;48.054;10.636;2023-07-02T00:39:50;16.00;99.90
37204;DHT22;23098;48.054;10.636;2023-07-02T00:42:15;16.00;99.90
37204;DHT22;23098;48.054;10.636;2023-07-02T00:44:42;16.00;99.90
37204;DHT22;23098;48.054;10.636;2023-07-02T00:47:11;16.00;99.90
37204;DHT22;23098;48.054;10.636;2023-07-02T00:49:37;16.00;99.90
37204;DHT22;23098;48.054;10.636;2023-07-02T00:52:03;16.00;99.90
37204;DHT22;23098;48.054;10.636;2023-07-02T00:54:29;16.00;99.90
37204;DHT22;23098;48.054;10.636;2023-07-02T00:56:55;15.90;99.90
37204;DHT22;23098;48.054;10.636;2023-07-02T00:59:20;16.00;99.90
37204;DHT22;23098;48.054;10.636;2023-07-02T01:01:46;15.90;99.90
37204;DHT22;23098;48.054;10.636;2023-07-02T01:04:17;15.90;99.90
37204;DHT22;23098;48.054;10.636;2023-07-02T01:06:43;15.90;99.90
37204;DHT22;23098;48.054;10.636;2023-07-02T01:09:09;15.90;99.90
37204;DHT22;23098;48.054;10.636;2023-07-02T01:11:47;16.00;99.90
37204;DHT22;23098;48.054;10.636;2023-07-02T01:16:52;16.00;99.90
37204;DHT22;23098;48.054;10.636;2023-07-02T01:19:21;16.00;99.90
37204;DHT22;23098;48.054;10.636;2023-07-02T01:21:49;16.00;99.90
37204;DHT22;23098;48.054;10.636;2023-07-02T01:24:16;16.00;99.90
37204;DHT22;23098;48.054;10.636;2023-07-02T01:26:42;16.10;99.90
37204;DHT22;23098;48.054;10.636;2023-07-02T01:29:18;16.10;99.90
37204;DHT22;23098;48.054;10.636;2023-07-02T01:31:44;16.10;99.90
37204;DHT22;23098;48.054;10.636;2023-07-02T01:34:10;16.10;99.90
37204;DHT22;23098;48.054;10.636;2023-07-02T01:36:36;16.10;99.90
37204;DHT22;23098;48.054;10.636;2023-07-02T01:39:02;16.10;99.90
37204;DHT22;23098;48.054;10.636;2023-07-02T01:41:28;16.10;99.90
37204;DHT22;23098;48.054;10.636;2023-07-02T01:43:53;16.10;99.90
37204;DHT22;23098;48.054;10.636;2023-07-02T01:46:20;16.20;99.90
37204;DHT22;23098;48.054;10.636;2023-07-02T01:48:45;16.20;99.90
37204;DHT22;23098;48.054;10.636;2023-07-02T01:51:20;16.20;99.90
37204;DHT22;23098;48.054;10.636;2023-07-02T01:53:46;16.20;99.90
37204;DHT22;23098;48.054;10.636;2023-07-02T01:56:12;16.20;99.90
37204;DHT22;23098;48.054;10.636;2023-07-02T01:58:38;16.30;99.90
37204;DHT22;23098;48.054;10.636;2023-07-02T02:01:20;16.30;99.90
37204;DHT22;23098;48.054;10.636;2023-07-02T02:03:45;16.20;99.90
37204;DHT22;23098;48.054;10.636;2023-07-02T02:06:22;16.20;99.90
37204;DHT22;23098;48.054;10.636;2023-07-02T02:08:48;16.20;99.90
37204;DHT22;23098;48.054;10.636;2023-07-02T02:11:13;16.20;99.90
37204;DHT22;23098;48.054;10.636;2023-07-02T02:13:39;16.20;99.90
37204;DHT22;23098;48.054;10.636;2023-07-02T02:16:04;16.20;99.90
37204;DHT22;23098;48.054;10.636;2023-07-02T02:18:30;16.20;99.90
37204;DHT22;23098;48.054;10.636;2023-07-02T02:20:55;16.20;99.90
37204;DHT22;23098;48.054;10.636;2023-07-02T02:23:21;16.20;99.90
37204;DHT22;23098;48.054;10.636;2023-07-02T02:25:46;16.30;99.90
37204;DHT22;23098;48.054;10.636;2023-07-02T02:28:12;16.30;99.90
37204;DHT22;23098;48.054;10.636;2023-07-02T02:30:37;16.30;99.90
37204;DHT22;23098;48.054;10.636;2023-07-02T02:33:03;16.30;99.90
37204;DHT22;23098;48.054;10.636;2023-07-02T02:35:28;16.30;99.90
37204;DHT22;23098;48.054;10.636;2023-07-02T02:37:54;16.30;99.90
37204;DHT22;23098;48.054;10.636;2023-07-02T02:40:19;16.30;99.90
37204;DHT22;23098;48.054;10.636;2023-07-02T02:42:45;16.30;99.90
37204;DHT22;23098;48.054;10.636;2023-07-02T02:45:11;16.30;99.90
37204;DHT22;23098;48.054;10.636;2023-07-02T02:47:36;16.30;99.90
37204;DHT22;23098;48.054;10.636;2023-07-02T02:50:02;16.30;99.90
37204;DHT22;23098;48.054;10.636;2023-07-02T02:52:27;16.20;99.90
37204;DHT22;23098;48.054;10.636;2023-07-02T02:54:53;16.30;99.90
37204;DHT22;23098;48.054;10.636;2023-07-02T02:57:18;16.30;99.90
37204;DHT22;23098;48.054;10.636;2023-07-02T02:59:44;16.20;99.90
37204;DHT22;23098;48.054;10.636;2023-07-02T03:02:09;16.20;99.90
37204;DHT22;23098;48.054;10.636;2023-07-02T03:04:35;15.80;99.90
37204;DHT22;23098;48.054;10.636;2023-07-02T03:07:05;15.40;99.90
37204;DHT22;23098;48.054;10.636;2023-07-02T03:09:32;15.10;99.90
37204;DHT22;23098;48.054;10.636;2023-07-02T03:11:57;14.80;99.90
37204;DHT22;23098;48.054;10.636;2023-07-02T03:14:23;14.70;99.90
37204;DHT22;23098;48.054;10.636;2023-07-02T03:16:48;14.50;99.90
37204;DHT22;23098;48.054;10.636;2023-07-02T03:19:14;14.40;99.90
37204;DHT22;23098;48.054;10.636;2023-07-02T03:21:42;14.40;99.90
37204;DHT22;23098;48.054;10.636;2023-07-02T03:24:08;14.30;99.90
37204;DHT22;23098;48.054;10.636;2023-07-02T03:26:37;14.30;99.90
37204;DHT22;23098;48.054;10.636;2023-07-02T03:29:02;14.30;99.90
37204;DHT22;23098;48.054;10.636;2023-07-02T03:31:28;14.30;99.90
37204;DHT22;23098;48.054;10.636;2023-07-02T03:33:53;14.30;99.90
37204;DHT22;23098;48.054;10.636;2023-07-02T03:36:19;14.30;99.90
37204;DHT22;23098;48.054;10.636;2023-07-02T03:38:44;14.30;99.90
37204;DHT22;23098;48.054;10.636;2023-07-02T03:41:10;14.30;99.90
37204;DHT22;23098;48.054;10.636;2023-07-02T03:43:35;14.30;99.90
37204;DHT22;23098;48.054;10.636;2023-07-02T03:46:01;14.30;99.90
37204;DHT22;23098;48.054;10.636;2023-07-02T03:48:26;14.30;99.90
37204;DHT22;23098;48.054;10.636;2023-07-02T03:50:52;14.30;99.90
37204;DHT22;23098;48.054;10.636;2023-07-02T03:53:17;14.20;99.90
37204;DHT22;23098;48.054;10.636;2023-07-02T03:55:43;14.20;99.90
37204;DHT22;23098;48.054;10.636;2023-07-02T03:58:09;14.30;99.90
37204;DHT22;23098;48.054;10.636;2023-07-02T04:00:34;14.30;99.90
37204;DHT22;23098;48.054;10.636;2023-07-02T04:03:00;14.40;99.90
37204;DHT22;23098;48.054;10.636;2023-07-02T04:05:25;14.40;99.90
37204;DHT22;23098;48.054;10.636;2023-07-02T04:07:51;14.50;99.90
37204;DHT22;23098;48.054;10.636;2023-07-02T04:10:16;14.50;99.90
37204;DHT22;23098;48.054;10.636;2023-07-02T04:12:42;14.60;99.90
37204;DHT22;23098;48.054;10.636;2023-07-02T04:15:08;14.60;99.90
37204;DHT22;23098;48.054;10.636;2023-07-02T04:17:33;14.60;99.90
37204;DHT22;23098;48.054;10.636;2023-07-02T04:20:00;14.70;99.90
37204;DHT22;23098;48.054;10.636;2023-07-02T04:22:28;14.70;99.90
37204;DHT22;23098;48.054;10.636;2023-07-02T04:24:53;14.70;99.90
37204;DHT22;23098;48.054;10.636;2023-07-02T04:27:18;14.80;99.90
37204;DHT22;23098;48.054;10.636;2023-07-02T04:29:45;14.80;99.90
37204;DHT22;23098;48.054;10.636;2023-07-02T04:32:10;14.70;99.90
37204;DHT22;23098;48.054;10.636;2023-07-02T04:34:36;14.80;99.90
37204;DHT22;23098;48.054;10.636;2023-07-02T04:37:03;14.90;99.90
37204;DHT22;23098;48.054;10.636;2023-07-02T04:39:29;14.80;99.90
37204;DHT22;23098;48.054;10.636;2023-07-02T04:41:54;14.90;99.90
37204;DHT22;23098;48.054;10.636;2023-07-02T04:44:20;14.90;99.90
37204;DHT22;23098;48.054;10.636;2023-07-02T04:46:58;15.00;99.90
37204;DHT22;23098;48.054;10.636;2023-07-02T04:49:24;15.10;99.90
37204;DHT22;23098;48.054;10.636;2023-07-02T04:51:50;15.10;99.90
37204;DHT22;23098;48.054;10.636;2023-07-02T04:54:16;15.10;99.90
37204;DHT22;23098;48.054;10.636;2023-07-02T04:56:41;15.20;99.90
37204;DHT22;23098;48.054;10.636;2023-07-02T04:59:07;15.30;99.90
37204;DHT22;23098;48.054;10.636;2023-07-02T05:01:32;15.30;99.90
37204;DHT22;23098;48.054;10.636;2023-07-02T05:03:58;15.30;99.90
37204;DHT22;23098;48.054;10.636;2023-07-02T05:06:23;15.40;99.90
37204;DHT22;23098;48.054;10.636;2023-07-02T05:08:49;15.40;99.90
37204;DHT22;23098;48.054;10.636;2023-07-02T05:11:14;15.50;99.90
37204;DHT22;23098;48.054;10.636;2023-07-02T05:13:40;15.50;99.90
37204;DHT22;23098;48.054;10.636;2023-07-02T05:16:05;15.50;99.90
37204;DHT22;23098;48.054;10.636;2023-07-02T05:18:31;15.50;99.90
37204;DHT22;23098;48.054;10.636;2023-07-02T05:20:57;15.50;99.90
37204;DHT22;23098;48.054;10.636;2023-07-02T05:23:22;15.70;99.90
37204;DHT22;23098;48.054;10.636;2023-07-02T05:25:48;15.80;99.90
37204;DHT22;23098;48.054;10.636;2023-07-02T05:28:13;15.90;99.90
37204;DHT22;23098;48.054;10.636;2023-07-02T05:30:39;16.00;99.90
37204;DHT22;23098;48.054;10.636;2023-07-02T05:33:04;16.10;99.90
37204;DHT22;23098;48.054;10.636;2023-07-02T05:35:30;16.20;99.90
37204;DHT22;23098;48.054;10.636;2023-07-02T05:37:55;16.30;99.90
37204;DHT22;23098;48.054;10.636;2023-07-02T05:40:21;16.30;99.90
37204;DHT22;23098;48.054;10.636;2023-07-02T05:42:46;16.40;99.90
37204;DHT22;23098;48.054;10.636;2023-07-02T05:45:12;16.40;99.90
37204;DHT22;23098;48.054;10.636;2023-07-02T05:47:37;16.50;99.90
37204;DHT22;23098;48.054;10.636;2023-07-02T05:50:04;16.60;99.90
37204;DHT22;23098;48.054;10.636;2023-07-02T05:52:29;16.70;99.90
37204;DHT22;23098;48.054;10.636;2023-07-02T05:54:55;16.80;99.90
37204;DHT22;23098;48.054;10.636;2023-07-02T05:57:20;16.90;99.90
37204;DHT22;23098;48.054;10.636;2023-07-02T05:59:46;17.00;99.90
37204;DHT22;23098;48.054;10.636;2023-07-02T06:02:11;17.00;99.90
37204;DHT22;23098;48.054;10.636;2023-07-02T06:04:37;17.10;99.90
37204;DHT22;23098;48.054;10.636;2023-07-02T06:07:02;17.10;99.90
37204;DHT22;23098;48.054;10.636;2023-07-02T06:09:28;17.10;99.90
37204;DHT22;23098;48.054;10.636;2023-07-02T06:11:54;17.20;99.90
37204;DHT22;23098;48.054;10.636;2023-07-02T06:14:19;17.20;99.90
37204;DHT22;23098;48.054;10.636;2023-07-02T06:16:45;17.20;99.90
37204;DHT22;23098;48.054;10.636;2023-07-02T06:19:10;17.20;99.90
37204;DHT22;23098;48.054;10.636;2023-07-02T06:21:36;17.10;99.90
37204;DHT22;23098;48.054;10.636;2023-07-02T06:24:01;16.80;99.90
37204;DHT22;23098;48.054;10.636;2023-07-02T06:26:27;16.40;99.90
37204;DHT22;23098;48.054;10.636;2023-07-02T06:28:53;15.90;99.90
37204;DHT22;23098;48.054;10.636;2023-07-02T06:31:18;15.70;99.90
37204;DHT22;23098;48.054;10.636;2023-07-02T06:33:44;15.30;99.90
37204;DHT22;23098;48.054;10.636;2023-07-02T06:36:09;15.10;99.90
37204;DHT22;23098;48.054;10.636;2023-07-02T06:38:36;14.90;99.90
37204;DHT22;23098;48.054;10.636;2023-07-02T06:41:01;14.90;99.90
37204;DHT22;23098;48.054;10.636;2023-07-02T06:43:27;14.80;99.90
37204;DHT22;23098;48.054;10.636;2023-07-02T06:45:52;14.80;99.90
37204;DHT22;23098;48.054;10.636;2023-07-02T06:48:17;14.80;99.90
37204;DHT22;23098;48.054;10.636;2023-07-02T06:50:46;14.70;99.90
37204;DHT22;23098;48.054;10.636;2023-07-02T06:53:12;14.70;99.90
37204;DHT22;23098;48.054;10.636;2023-07-02T06:55:37;14.70;99.90
37204;DHT22;23098;48.054;10.636;2023-07-02T06:58:05;14.80;99.90
37204;DHT22;23098;48.054;10.636;2023-07-02T07:00:32;14.80;99.90
37204;DHT22;23098;48.054;10.636;2023-07-02T07:03:02;14.80;99.90
37204;DHT22;23098;48.054;10.636;2023-07-02T07:05:32;14.80;99.90
37204;DHT22;23098;48.054;10.636;2023-07-02T07:07:59;14.80;99.90
37204;DHT22;23098;48.054;10.636;2023-07-02T07:10:28;14.80;99.90
37204;DHT22;23098;48.054;10.636;2023-07-02T07:12:59;14.90;99.90
37204;DHT22;23098;48.054;10.636;2023-07-02T07:15:25;14.80;99.90
37204;DHT22;23098;48.054;10.636;2023-07-02T07:17:50;14.80;99.90
37204;DHT22;23098;48.054;10.636;2023-07-02T07:20:16;14.80;99.90
37204;DHT22;23098;48.054;10.636;2023-07-02T07:22:41;14.70;99.90
37204;DHT22;23098;48.054;10.636;2023-07-02T07:25:08;14.70;99.90
37204;DHT22;23098;48.054;10.636;2023-07-02T07:27:33;14.70;99.90
37204;DHT22;23098;48.054;10.636;2023-07-02T07:29:59;14.70;99.90
37204;DHT22;23098;48.054;10.636;2023-07-02T07:32:24;14.70;99.90
37204;DHT22;23098;48.054;10.636;2023-07-02T07:35:03;14.70;99.90
37204;DHT22;23098;48.054;10.636;2023-07-02T07:37:29;14.70;99.90
37204;DHT22;23098;48.054;10.636;2023-07-02T07:39:55;14.60;99.90
37204;DHT22;23098;48.054;10.636;2023-07-02T07:42:20;14.70;99.90
37204;DHT22;23098;48.054;10.636;2023-07-02T07:44:46;14.60;99.90
37204;DHT22;23098;48.054;10.636;2023-07-02T07:47:12;14.60;99.90
37204;DHT22;23098;48.054;10.636;2023-07-02T07:49:37;14.60;99.90
37204;DHT22;23098;48.054;10.636;2023-07-02T07:52:03;14.60;99.90
37204;DHT22;23098;48.054;10.636;2023-07-02T07:54:29;14.50;99.90
37204;DHT22;23098;48.054;10.636;2023-07-02T07:56:54;14.50;99.90
37204;DHT22;23098;48.054;10.636;2023-07-02T07:59:20;14.50;99.90
37204;DHT22;23098;48.054;10.636;2023-07-02T08:01:45;14.50;99.90
37204;DHT22;23098;48.054;10.636;2023-07-02T08:04:12;14.50;99.90
37204;DHT22;23098;48.054;10.636;2023-07-02T08:06:37;14.50;99.90
37204;DHT22;23098;48.054;10.636;2023-07-02T08:09:03;14.60;99.90
37204;DHT22;23098;48.054;10.636;2023-07-02T08:11:29;14.70;99.90
37204;DHT22;23098;48.054;10.636;2023-07-02T08:13:54;14.80;99.90
37204;DHT22;23098;48.054;10.636;2023-07-02T08:16:20;14.90;99.90
37204;DHT22;23098;48.054;10.636;2023-07-02T08:18:45;15.00;99.90
37204;DHT22;23098;48.054;10.636;2023-07-02T08:21:11;15.10;99.90
37204;DHT22;23098;48.054;10.636;2023-07-02T08:23:37;15.20;99.90
37204;DHT22;23098;48.054;10.636;2023-07-02T08:26:03;15.40;99.90
37204;DHT22;23098;48.054;10.636;2023-07-02T08:28:28;15.30;99.90
37204;DHT22;23098;48.054;10.636;2023-07-02T08:30:54;15.60;99.90
37204;DHT22;23098;48.054;10.636;2023-07-02T08:33:20;15.70;99.90
37204;DHT22;23098;48.054;10.636;2023-07-02T08:35:46;15.70;99.90
37204;DHT22;23098;48.054;10.636;2023-07-02T08:38:18;15.60;99.90
37204;DHT22;23098;48.054;10.636;2023-07-02T08:40:44;15.70;99.90
37204;DHT22;23098;48.054;10.636;2023-07-02T08:43:09;15.90;99.90
37204;DHT22;23098;48.054;10.636;2023-07-02T08:45:36;15.90;99.90
37204;DHT22;23098;48.054;10.636;2023-07-02T08:48:02;16.00;99.90
37204;DHT22;23098;48.054;10.636;2023-07-02T08:50:28;15.90;99.90
37204;DHT22;23098;48.054;10.636;2023-07-02T08:52:54;15.90;99.90
37204;DHT22;23098;48.054;10.636;2023-07-02T08:55:19;16.30;99.90
37204;DHT22;23098;48.054;10.636;2023-07-02T08:57:53;16.80;99.90
37204;DHT22;23098;48.054;10.636;2023-07-02T09:00:19;17.20;99.90
37204;DHT22;23098;48.054;10.636;2023-07-02T09:02:45;17.60;99.90
37204;DHT22;23098;48.054;10.636;2023-07-02T09:05:12;17.50;99.90
37204;DHT22;23098;48.054;10.636;2023-07-02T09:07:45;17.70;99.90
37204;DHT22;23098;48.054;10.636;2023-07-02T09:10:11;18.00;99.90
37204;DHT22;23098;48.054;10.636;2023-07-02T09:12:37;18.00;99.90
37204;DHT22;23098;48.054;10.636;2023-07-02T09:15:05;17.90;99.90
37204;DHT22;23098;48.054;10.636;2023-07-02T09:17:36;18.10;99.90
37204;DHT22;23098;48.054;10.636;2023-07-02T09:20:04;18.10;99.90
37204;DHT22;23098;48.054;10.636;2023-07-02T09:22:32;17.80;99.90
37204;DHT22;23098;48.054;10.636;2023-07-02T09:24:59;18.20;99.90
37204;DHT22;23098;48.054;10.636;2023-07-02T09:27:35;18.40;99.90
37204;DHT22;23098;48.054;10.636;2023-07-02T09:30:13;19.10;99.90
37204;DHT22;23098;48.054;10.636;2023-07-02T09:32:40;19.70;99.90
37204;DHT22;23098;48.054;10.636;2023-07-02T09:35:06;20.00;99.90
37204;DHT22;23098;48.054;10.636;2023-07-02T09:37:32;19.80;99.90
37204;DHT22;23098;48.054;10.636;2023-07-02T09:39:58;19.80;99.90
37204;DHT22;23098;48.054;10.636;2023-07-02T09:42:25;19.80;99.90
37204;DHT22;23098;48.054;10.636;2023-07-02T09:44:52;19.50;99.90
37204;DHT22;23098;48.054;10.636;2023-07-02T09:47:21;19.30;99.90
37204;DHT22;23098;48.054;10.636;2023-07-02T09:49:55;19.00;99.90
37204;DHT22;23098;48.054;10.636;2023-07-02T09:52:23;18.80;99.90
37204;DHT22;23098;48.054;10.636;2023-07-02T09:54:49;18.70;99.90
37204;DHT22;23098;48.054;10.636;2023-07-02T09:57:14;18.70;99.90
37204;DHT22;23098;48.054;10.636;2023-07-02T09:59:40;18.90;99.90
37204;DHT22;23098;48.054;10.636;2023-07-02T10:02:10;19.10;99.90
37204;DHT22;23098;48.054;10.636;2023-07-02T10:04:59;19.40;99.90
37204;DHT22;23098;48.054;10.636;2023-07-02T10:07:27;19.70;99.90
37204;DHT22;23098;48.054;10.636;2023-07-02T10:09:53;19.70;99.90
37204;DHT22;23098;48.054;10.636;2023-07-02T10:12:23;19.90;99.90
37204;DHT22;23098;48.054;10.636;2023-07-02T10:14:50;19.80;99.90
37204;DHT22;23098;48.054;10.636;2023-07-02T10:17:23;19.90;99.90
37204;DHT22;23098;48.054;10.636;2023-07-02T10:19:54;20.30;99.90
37204;DHT22;23098;48.054;10.636;2023-07-02T10:22:20;20.70;99.90
37204;DHT22;23098;48.054;10.636;2023-07-02T10:24:56;20.70;99.90
37204;DHT22;23098;48.054;10.636;2023-07-02T10:27:37;20.80;99.90
37204;DHT22;23098;48.054;10.636;2023-07-02T10:30:04;21.10;99.90
37204;DHT22;23098;48.054;10.636;2023-07-02T10:32:31;21.20;98.80
37204;DHT22;23098;48.054;10.636;2023-07-02T10:34:59;21.00;98.70
37204;DHT22;23098;48.054;10.636;2023-07-02T10:37:35;21.00;99.90
37204;DHT22;23098;48.054;10.636;2023-07-02T10:40:03;20.60;99.40
37204;DHT22;23098;48.054;10.636;2023-07-02T10:42:30;20.60;98.70
37204;DHT22;23098;48.054;10.636;2023-07-02T10:44:55;20.70;98.50
37204;DHT22;23098;48.054;10.636;2023-07-02T10:47:21;21.20;97.60
37204;DHT22;23098;48.054;10.636;2023-07-02T10:49:48;21.40;97.80
37204;DHT22;23098;48.054;10.636;2023-07-02T10:52:13;21.40;96.70
37204;DHT22;23098;48.054;10.636;2023-07-02T10:54:46;21.50;95.20
37204;DHT22;23098;48.054;10.636;2023-07-02T10:57:18;21.50;92.50
37204;DHT22;23098;48.054;10.636;2023-07-02T10:59:50;21.60;94.20
37204;DHT22;23098;48.054;10.636;2023-07-02T11:02:15;21.50;94.90
37204;DHT22;23098;48.054;10.636;2023-07-02T11:04:41;21.40;95.10
37204;DHT22;23098;48.054;10.636;2023-07-02T11:07:07;21.30;94.50
37204;DHT22;23098;48.054;10.636;2023-07-02T11:09:32;21.40;94.10
37204;DHT22;23098;48.054;10.636;2023-07-02T11:12:00;21.80;94.30
37204;DHT22;23098;48.054;10.636;2023-07-02T11:14:27;22.40;93.20
37204;DHT22;23098;48.054;10.636;2023-07-02T11:16:56;22.40;92.80
37204;DHT22;23098;48.054;10.636;2023-07-02T11:19:22;22.20;92.40
37204;DHT22;23098;48.054;10.636;2023-07-02T11:21:53;22.20;93.60
37204;DHT22;23098;48.054;10.636;2023-07-02T11:24:35;22.40;94.10
37204;DHT22;23098;48.054;10.636;2023-07-02T11:27:05;22.40;94.20
37204;DHT22;23098;48.054;10.636;2023-07-02T11:29:34;22.60;92.40
37204;DHT22;23098;48.054;10.636;2023-07-02T11:32:07;22.70;92.00
37204;DHT22;23098;48.054;10.636;2023-07-02T11:34:34;22.60;92.30
37204;DHT22;23098;48.054;10.636;2023-07-02T11:37:00;22.90;92.80
37204;DHT22;23098;48.054;10.636;2023-07-02T11:39:26;23.40;93.10
37204;DHT22;23098;48.054;10.636;2023-07-02T11:41:54;23.20;92.00
37204;DHT22;23098;48.054;10.636;2023-07-02T11:44:20;22.80;93.20
37204;DHT22;23098;48.054;10.636;2023-07-02T11:46:46;22.60;93.80
37204;DHT22;23098;48.054;10.636;2023-07-02T11:49:12;22.60;91.80
37204;DHT22;23098;48.054;10.636;2023-07-02T11:51:42;22.50;93.30
37204;DHT22;23098;48.054;10.636;2023-07-02T11:54:13;22.50;93.60
37204;DHT22;23098;48.054;10.636;2023-07-02T11:56:39;22.80;93.70
37204;DHT22;23098;48.054;10.636;2023-07-02T11:59:07;22.90;92.40
37204;DHT22;23098;48.054;10.636;2023-07-02T12:01:32;23.60;94.20
37204;DHT22;23098;48.054;10.636;2023-07-02T12:03:58;23.80;93.20
37204;DHT22;23098;48.054;10.636;2023-07-02T12:06:24;23.70;92.90
37204;DHT22;23098;48.054;10.636;2023-07-02T12:08:49;23.70;92.60
37204;DHT22;23098;48.054;10.636;2023-07-02T12:11:15;23.80;93.20
37204;DHT22;23098;48.054;10.636;2023-07-02T12:13:41;23.90;92.70
37204;DHT22;23098;48.054;10.636;2023-07-02T12:16:06;24.00;93.00
37204;DHT22;23098;48.054;10.636;2023-07-02T12:18:32;23.60;92.90
37204;DHT22;23098;48.054;10.636;2023-07-02T12:20:57;22.80;94.10
37204;DHT22;23098;48.054;10.636;2023-07-02T12:23:23;23.00;93.90
37204;DHT22;23098;48.054;10.636;2023-07-02T12:25:48;23.20;94.40
37204;DHT22;23098;48.054;10.636;2023-07-02T12:28:14;23.40;93.20
37204;DHT22;23098;48.054;10.636;2023-07-02T12:30:40;23.30;93.40
37204;DHT22;23098;48.054;10.636;2023-07-02T12:33:05;23.50;93.20
37204;DHT22;23098;48.054;10.636;2023-07-02T12:35:31;23.80;93.10
37204;DHT22;23098;48.054;10.636;2023-07-02T12:37:57;23.90;93.10
37204;DHT22;23098;48.054;10.636;2023-07-02T12:40:22;24.20;92.70
37204;DHT22;23098;48.054;10.636;2023-07-02T12:42:48;24.20;92.10
37204;DHT22;23098;48.054;10.636;2023-07-02T12:45:15;23.90;92.30
37204;DHT22;23098;48.054;10.636;2023-07-02T12:47:41;23.40;92.00
37204;DHT22;23098;48.054;10.636;2023-07-02T12:50:08;23.30;92.30
37204;DHT22;23098;48.054;10.636;2023-07-02T12:52:34;23.70;91.80
37204;DHT22;23098;48.054;10.636;2023-07-02T12:54:59;23.60;92.20
37204;DHT22;23098;48.054;10.636;2023-07-02T12:57:25;23.80;92.70
37204;DHT22;23098;48.054;10.636;2023-07-02T12:59:54;23.80;92.60
37204;DHT22;23098;48.054;10.636;2023-07-02T13:02:21;23.70;92.80
37204;DHT22;23098;48.054;10.636;2023-07-02T13:04:47;23.30;93.20
37204;DHT22;23098;48.054;10.636;2023-07-02T13:07:13;23.20;93.30
37204;DHT22;23098;48.054;10.636;2023-07-02T13:09:38;23.30;93.20
37204;DHT22;23098;48.054;10.636;2023-07-02T13:12:04;23.60;93.40
37204;DHT22;23098;48.054;10.636;2023-07-02T13:14:30;23.70;92.20
37204;DHT22;23098;48.054;10.636;2023-07-02T13:16:56;23.60;92.80
37204;DHT22;23098;48.054;10.636;2023-07-02T13:19:21;23.40;92.90
37204;DHT22;23098;48.054;10.636;2023-07-02T13:21:47;23.30;92.70
37204;DHT22;23098;48.054;10.636;2023-07-02T13:24:12;23.60;92.50
37204;DHT22;23098;48.054;10.636;2023-07-02T13:26:38;23.80;92.80
37204;DHT22;23098;48.054;10.636;2023-07-02T13:29:03;23.60;92.90
37204;DHT22;23098;48.054;10.636;2023-07-02T13:31:29;23.90;92.40
37204;DHT22;23098;48.054;10.636;2023-07-02T13:33:54;23.70;92.30
37204;DHT22;23098;48.054;10.636;2023-07-02T13:36:20;23.80;92.50
37204;DHT22;23098;48.054;10.636;2023-07-02T13:38:45;23.90;92.40
37204;DHT22;23098;48.054;10.636;2023-07-02T13:41:11;24.00;92.60
37204;DHT22;23098;48.054;10.636;2023-07-02T13:43:37;23.90;91.90
37204;DHT22;23098;48.054;10.636;2023-07-02T13:46:03;23.90;92.90
37204;DHT22;23098;48.054;10.636;2023-07-02T13:48:28;24.60;93.20
37204;DHT22;23098;48.054;10.636;2023-07-02T13:50:54;24.90;91.90
37204;DHT22;23098;48.054;10.636;2023-07-02T13:53:20;25.10;91.20
37204;DHT22;23098;48.054;10.636;2023-07-02T13:55:45;25.00;91.30
37204;DHT22;23098;48.054;10.636;2023-07-02T13:58:11;25.10;91.30
37204;DHT22;23098;48.054;10.636;2023-07-02T14:00:37;24.70;91.50
37204;DHT22;23098;48.054;10.636;2023-07-02T14:03:03;24.10;90.60
37204;DHT22;23098;48.054;10.636;2023-07-02T14:05:29;23.80;91.00
37204;DHT22;23098;48.054;10.636;2023-07-02T14:07:56;23.70;91.80
37204;DHT22;23098;48.054;10.636;2023-07-02T14:10:21;23.40;91.30
37204;DHT22;23098;48.054;10.636;2023-07-02T14:12:47;23.00;92.20
37204;DHT22;23098;48.054;10.636;2023-07-02T14:15:13;23.00;92.50
37204;DHT22;23098;48.054;10.636;2023-07-02T14:17:38;23.00;92.20
37204;DHT22;23098;48.054;10.636;2023-07-02T14:20:05;23.40;92.70
37204;DHT22;23098;48.054;10.636;2023-07-02T14:22:31;23.50;91.30
37204;DHT22;23098;48.054;10.636;2023-07-02T14:24:56;23.80;92.20
37204;DHT22;23098;48.054;10.636;2023-07-02T14:27:22;23.90;91.70
37204;DHT22;23098;48.054;10.636;2023-07-02T14:29:47;24.00;91.30
37204;DHT22;23098;48.054;10.636;2023-07-02T14:32:14;24.10;90.80
37204;DHT22;23098;48.054;10.636;2023-07-02T14:34:40;24.20;90.90
37204;DHT22;23098;48.054;10.636;2023-07-02T14:37:05;24.50;90.60
37204;DHT22;23098;48.054;10.636;2023-07-02T14:39:31;24.30;90.40
37204;DHT22;23098;48.054;10.636;2023-07-02T14:41:57;23.60;90.30
37204;DHT22;23098;48.054;10.636;2023-07-02T14:44:22;23.20;90.90
37204;DHT22;23098;48.054;10.636;2023-07-02T14:46:48;22.90;91.60
37204;DHT22;23098;48.054;10.636;2023-07-02T14:49:14;22.60;91.90
37204;DHT22;23098;48.054;10.636;2023-07-02T14:51:40;22.40;92.50
37204;DHT22;23098;48.054;10.636;2023-07-02T14:54:06;22.20;92.80
37204;DHT22;23098;48.054;10.636;2023-07-02T14:56:34;22.10;92.90
37204;DHT22;23098;48.054;10.636;2023-07-02T14:59:02;22.00;93.20
37204;DHT22;23098;48.054;10.636;2023-07-02T15:01:28;22.10;93.20
37204;DHT22;23098;48.054;10.636;2023-07-02T15:03:54;22.20;93.50
37204;DHT22;23098;48.054;10.636;2023-07-02T15:06:19;22.30;93.30
37204;DHT22;23098;48.054;10.636;2023-07-02T15:08:45;22.40;93.60
37204;DHT22;23098;48.054;10.636;2023-07-02T15:11:12;22.40;93.20
37204;DHT22;23098;48.054;10.636;2023-07-02T15:13:38;22.20;92.90